sensor_id;sensor_type;location;lat;lon;timestamp;temperature;humidity
21648;DHT22;10985;54.182;7.890;2024-03-29T00:02:03;8.20;99.90
21648;DHT22;10985;54.182;7.890;2024-03-29T00:04:28;8.20;99.90
21648;DHT22;10985;54.182;7.890;2024-03-29T00:06:54;8.20;99.90
21648;DHT22;10985;54.182;7.890;2024-03-29T00:09:19;8.20;99.90
21648;DHT22;10985;54.182;7.890;2024-03-29T00:11:45;8.20;99.90
21648;DHT22;10985;54.182;7.890;2024-03-29T00:14:10;8.20;99.90
21648;DHT22;10985;54.182;7.890;2024-03-29T00:16:36;8.20;99.90
21648;DHT22;10985;54.182;7.890;2024-03-29T00:19:01;8.20;99.90
21648;DHT22;10985;54.182;7.890;2024-03-29T00:21:27;8.20;99.90
21648;DHT22;10985;54.182;7.890;2024-03-29T00:23:52;8.20;99.90
21648;DHT22;10985;54.182;7.890;2024-03-29T00:26:18;8.20;99.90
21648;DHT22;10985;54.182;7.890;2024-03-29T00:28:43;8.20;99.90
21648;DHT22;10985;54.182;7.890;2024-03-29T00:31:09;8.20;99.90
21648;DHT22;10985;54.182;7.890;2024-03-29T00:33:35;8.20;99.90
21648;DHT22;10985;54.182;7.890;2024-03-29T00:36:00;8.20;99.90
21648;DHT22;10985;54.182;7.890;2024-03-29T00:38:26;8.20;99.90
21648;DHT22;10985;54.182;7.890;2024-03-29T00:40:51;8.20;99.90
21648;DHT22;10985;54.182;7.890;2024-03-29T00:43:17;8.20;99.90
21648;DHT22;10985;54.182;7.890;2024-03-29T00:45:42;8.20;99.90
21648;DHT22;10985;54.182;7.890;2024-03-29T00:48:08;8.20;99.90
21648;DHT22;10985;54.182;7.890;2024-03-29T00:50:34;8.20;99.90
21648;DHT22;10985;54.182;7.890;2024-03-29T00:53:00;8.20;99.90
21648;DHT22;10985;54.182;7.890;2024-03-29T00:55:25;8.20;99.90
21648;DHT22;10985;54.182;7.890;2024-03-29T00:57:51;8.20;99.90
21648;DHT22;10985;54.182;7.890;2024-03-29T01:00:17;8.20;99.90
21648;DHT22;10985;54.182;7.890;2024-03-29T01:02:42;8.20;99.90
21648;DHT22;10985;54.182;7.890;2024-03-29T01:05:08;8.20;99.90
21648;DHT22;10985;54.182;7.890;2024-03-29T01:07:34;8.20;99.90
21648;DHT22;10985;54.182;7.890;2024-03-29T01:10:00;8.20;99.90
21648;DHT22;10985;54.182;7.890;2024-03-29T01:12:25;8.10;99.90
21648;DHT22;10985;54.182;7.890;2024-03-29T01:14:51;8.10;99.90
21648;DHT22;10985;54.182;7.890;2024-03-29T01:17:16;8.10;99.90
21648;DHT22;10985;54.182;7.890;2024-03-29T01:19:42;8.20;99.90
21648;DHT22;10985;54.182;7.890;2024-03-29T01:22:07;8.10;99.90
21648;DHT22;10985;54.182;7.890;2024-03-29T01:24:33;8.10;99.90
21648;DHT22;10985;54.182;7.890;2024-03-29T01:26:59;8.10;99.90
21648;DHT22;10985;54.182;7.890;2024-03-29T01:29:25;8.10;99.90
21648;DHT22;10985;54.182;7.890;2024-03-29T01:31:50;8.10;99.90
21648;DHT22;10985;54.182;7.890;2024-03-29T01:34:16;8.20;99.90
21648;DHT22;10985;54.182;7.890;2024-03-29T01:36:42;8.20;99.90
21648;DHT22;10985;54.182;7.890;2024-03-29T01:39:07;8.10;99.90
21648;DHT22;10985;54.182;7.890;2024-03-29T01:41:34;8.10;99.90
21648;DHT22;10985;54.182;7.890;2024-03-29T01:43:59;8.10;99.90
21648;DHT22;10985;54.182;7.890;2024-03-29T01:46:25;8.10;99.90
21648;DHT22;10985;54.182;7.890;2024-03-29T01:48:52;8.10;99.90
21648;DHT22;10985;54.182;7.890;2024-03-29T01:51:19;8.10;99.90
21648;DHT22;10985;54.182;7.890;2024-03-29T01:53:47;8.10;99.90
21648;DHT22;10985;54.182;7.890;2024-03-29T01:56:15;8.10;99.90
21648;DHT22;10985;54.182;7.890;2024-03-29T01:58:41;8.10;99.90
21648;DHT22;10985;54.182;7.890;2024-03-29T02:01:08;8.20;99.90
21648;DHT22;10985;54.182;7.890;2024-03-29T02:03:33;8.20;99.90
21648;DHT22;10985;54.182;7.890;2024-03-29T02:05:59;8.20;99.90
21648;DHT22;10985;54.182;7.890;2024-03-29T02:08:27;8.20;99.90
21648;DHT22;10985;54.182;7.890;2024-03-29T02:10:53;8.20;99.90
21648;DHT22;10985;54.182;7.890;2024-03-29T02:13:19;8.20;99.90
21648;DHT22;10985;54.182;7.890;2024-03-29T02:15:44;8.10;99.90
21648;DHT22;10985;54.182;7.890;2024-03-29T02:18:10;8.10;99.90
21648;DHT22;10985;54.182;7.890;2024-03-29T02:20:36;8.10;99.90
21648;DHT22;10985;54.182;7.890;2024-03-29T02:23:14;8.10;99.90
21648;DHT22;10985;54.182;7.890;2024-03-29T02:25:41;8.10;99.90
21648;DHT22;10985;54.182;7.890;2024-03-29T02:28:06;8.10;99.90
21648;DHT22;10985;54.182;7.890;2024-03-29T02:30:32;8.10;99.90
21648;DHT22;10985;54.182;7.890;2024-03-29T02:32:58;8.10;99.90
21648;DHT22;10985;54.182;7.890;2024-03-29T02:35:24;8.10;99.90
21648;DHT22;10985;54.182;7.890;2024-03-29T02:37:50;8.10;99.90
21648;DHT22;10985;54.182;7.890;2024-03-29T02:40:15;8.10;99.90
21648;DHT22;10985;54.182;7.890;2024-03-29T02:42:41;8.10;99.90
21648;DHT22;10985;54.182;7.890;2024-03-29T02:45:07;8.10;99.90
21648;DHT22;10985;54.182;7.890;2024-03-29T02:47:33;8.10;99.90
21648;DHT22;10985;54.182;7.890;2024-03-29T02:49:58;8.10;99.90
21648;DHT22;10985;54.182;7.890;2024-03-29T02:52:24;8.10;99.90
21648;DHT22;10985;54.182;7.890;2024-03-29T02:54:49;8.10;99.90
21648;DHT22;10985;54.182;7.890;2024-03-29T02:57:15;8.10;99.90
21648;DHT22;10985;54.182;7.890;2024-03-29T02:59:41;8.10;99.90
21648;DHT22;10985;54.182;7.890;2024-03-29T03:02:07;8.10;99.90
21648;DHT22;10985;54.182;7.890;2024-03-29T03:04:32;8.10;99.90
21648;DHT22;10985;54.182;7.890;2024-03-29T03:06:58;8.00;99.90
21648;DHT22;10985;54.182;7.890;2024-03-29T03:09:44;8.00;99.90
21648;DHT22;10985;54.182;7.890;2024-03-29T03:12:29;8.00;99.90
21648;DHT22;10985;54.182;7.890;2024-03-29T03:14:55;8.00;99.90
21648;DHT22;10985;54.182;7.890;2024-03-29T03:17:21;8.00;99.90
21648;DHT22;10985;54.182;7.890;2024-03-29T03:19:46;8.00;99.90
21648;DHT22;10985;54.182;7.890;2024-03-29T03:22:12;8.00;99.90
21648;DHT22;10985;54.182;7.890;2024-03-29T03:24:37;8.00;99.90
21648;DHT22;10985;54.182;7.890;2024-03-29T03:27:03;8.00;99.90
21648;DHT22;10985;54.182;7.890;2024-03-29T03:29:29;8.00;99.90
21648;DHT22;10985;54.182;7.890;2024-03-29T03:31:54;8.00;99.90
21648;DHT22;10985;54.182;7.890;2024-03-29T03:34:19;8.00;99.90
21648;DHT22;10985;54.182;7.890;2024-03-29T03:36:45;8.00;99.90
21648;DHT22;10985;54.182;7.890;2024-03-29T03:39:10;8.00;99.90
21648;DHT22;10985;54.182;7.890;2024-03-29T03:41:36;8.00;99.90
21648;DHT22;10985;54.182;7.890;2024-03-29T03:44:01;8.00;99.90
21648;DHT22;10985;54.182;7.890;2024-03-29T03:46:27;8.00;99.90
21648;DHT22;10985;54.182;7.890;2024-03-29T03:48:52;8.00;99.90
21648;DHT22;10985;54.182;7.890;2024-03-29T03:51:18;8.00;99.90
21648;DHT22;10985;54.182;7.890;2024-03-29T03:53:43;8.00;99.90
21648;DHT22;10985;54.182;7.890;2024-03-29T03:56:09;8.00;99.90
21648;DHT22;10985;54.182;7.890;2024-03-29T03:58:34;8.00;99.90
21648;DHT22;10985;54.182;7.890;2024-03-29T04:01:06;8.00;99.90
21648;DHT22;10985;54.182;7.890;2024-03-29T04:03:31;8.00;99.90
21648;DHT22;10985;54.182;7.890;2024-03-29T04:05:57;8.00;99.90
21648;DHT22;10985;54.182;7.890;2024-03-29T04:08:22;8.00;99.90
21648;DHT22;10985;54.182;7.890;2024-03-29T04:10:48;8.00;99.90
21648;DHT22;10985;54.182;7.890;2024-03-29T04:13:13;8.00;99.90
21648;DHT22;10985;54.182;7.890;2024-03-29T04:15:39;8.00;99.90
21648;DHT22;10985;54.182;7.890;2024-03-29T04:18:05;8.00;99.90
21648;DHT22;10985;54.182;7.890;2024-03-29T04:20:31;8.00;99.90
21648;DHT22;10985;54.182;7.890;2024-03-29T04:22:57;8.00;99.90
21648;DHT22;10985;54.182;7.890;2024-03-29T04:25:23;8.00;99.90
21648;DHT22;10985;54.182;7.890;2024-03-29T04:27:48;8.00;99.90
21648;DHT22;10985;54.182;7.890;2024-03-29T04:30:14;8.00;99.90
21648;DHT22;10985;54.182;7.890;2024-03-29T04:32:39;8.00;99.90
21648;DHT22;10985;54.182;7.890;2024-03-29T04:35:05;8.00;99.90
21648;DHT22;10985;54.182;7.890;2024-03-29T04:37:30;8.00;99.90
21648;DHT22;10985;54.182;7.890;2024-03-29T04:39:56;8.00;99.90
21648;DHT22;10985;54.182;7.890;2024-03-29T04:42:21;8.00;99.90
21648;DHT22;10985;54.182;7.890;2024-03-29T04:44:47;8.00;99.90
21648;DHT22;10985;54.182;7.890;2024-03-29T04:47:12;8.00;99.90
21648;DHT22;10985;54.182;7.890;2024-03-29T04:49:38;8.00;99.90
21648;DHT22;10985;54.182;7.890;2024-03-29T04:52:05;8.00;99.90
21648;DHT22;10985;54.182;7.890;2024-03-29T04:54:34;8.00;99.90
21648;DHT22;10985;54.182;7.890;2024-03-29T04:57:00;8.00;99.90
21648;DHT22;10985;54.182;7.890;2024-03-29T04:59:27;8.00;99.90
21648;DHT22;10985;54.182;7.890;2024-03-29T05:01:53;8.00;99.90
21648;DHT22;10985;54.182;7.890;2024-03-29T05:04:21;8.00;99.90
21648;DHT22;10985;54.182;7.890;2024-03-29T05:06:55;8.00;99.90
21648;DHT22;10985;54.182;7.890;2024-03-29T05:09:21;8.00;99.90
21648;DHT22;10985;54.182;7.890;2024-03-29T05:11:47;8.00;99.90
21648;DHT22;10985;54.182;7.890;2024-03-29T05:14:15;8.00;99.90
21648;DHT22;10985;54.182;7.890;2024-03-29T05:16:42;8.00;99.90
21648;DHT22;10985;54.182;7.890;2024-03-29T05:19:07;8.00;99.90
21648;DHT22;10985;54.182;7.890;2024-03-29T05:21:33;8.00;99.90
21648;DHT22;10985;54.182;7.890;2024-03-29T05:23:58;8.00;99.90
21648;DHT22;10985;54.182;7.890;2024-03-29T05:26:24;8.00;99.90
21648;DHT22;10985;54.182;7.890;2024-03-29T05:28:49;8.10;99.90
21648;DHT22;10985;54.182;7.890;2024-03-29T05:31:15;8.00;99.90
21648;DHT22;10985;54.182;7.890;2024-03-29T05:33:41;8.10;99.90
21648;DHT22;10985;54.182;7.890;2024-03-29T05:36:07;8.00;99.90
21648;DHT22;10985;54.182;7.890;2024-03-29T05:38:34;8.10;99.90
21648;DHT22;10985;54.182;7.890;2024-03-29T05:40:59;8.10;99.90
21648;DHT22;10985;54.182;7.890;2024-03-29T05:43:25;8.10;99.90
21648;DHT22;10985;54.182;7.890;2024-03-29T05:45:52;8.10;99.90
21648;DHT22;10985;54.182;7.890;2024-03-29T05:48:18;8.10;99.90
21648;DHT22;10985;54.182;7.890;2024-03-29T05:50:44;8.10;99.90
21648;DHT22;10985;54.182;7.890;2024-03-29T05:53:10;8.10;99.90
21648;DHT22;10985;54.182;7.890;2024-03-29T05:55:36;8.10;99.90
21648;DHT22;10985;54.182;7.890;2024-03-29T05:58:01;8.20;99.90
21648;DHT22;10985;54.182;7.890;2024-03-29T06:00:28;8.20;99.90
21648;DHT22;10985;54.182;7.890;2024-03-29T06:02:53;8.20;99.90
21648;DHT22;10985;54.182;7.890;2024-03-29T06:05:19;8.20;99.90
21648;DHT22;10985;54.182;7.890;2024-03-29T06:07:44;8.20;99.90
21648;DHT22;10985;54.182;7.890;2024-03-29T06:10:10;8.20;99.90
21648;DHT22;10985;54.182;7.890;2024-03-29T06:12:35;8.20;99.90
21648;DHT22;10985;54.182;7.890;2024-03-29T06:15:06;8.20;99.90
21648;DHT22;10985;54.182;7.890;2024-03-29T06:17:51;8.20;99.90
21648;DHT22;10985;54.182;7.890;2024-03-29T06:20:16;8.20;99.90
21648;DHT22;10985;54.182;7.890;2024-03-29T06:22:42;8.20;99.90
21648;DHT22;10985;54.182;7.890;2024-03-29T06:25:08;8.30;99.90
21648;DHT22;10985;54.182;7.890;2024-03-29T06:27:35;8.30;99.90
21648;DHT22;10985;54.182;7.890;2024-03-29T06:30:02;8.30;99.90
21648;DHT22;10985;54.182;7.890;2024-03-29T06:32:29;8.30;99.90
21648;DHT22;10985;54.182;7.890;2024-03-29T06:34:55;8.30;99.90
21648;DHT22;10985;54.182;7.890;2024-03-29T06:37:21;8.40;99.90
21648;DHT22;10985;54.182;7.890;2024-03-29T06:39:48;8.40;99.90
21648;DHT22;10985;54.182;7.890;2024-03-29T06:42:13;8.40;99.90
21648;DHT22;10985;54.182;7.890;2024-03-29T06:44:39;8.40;99.90
21648;DHT22;10985;54.182;7.890;2024-03-29T06:47:05;8.50;99.90
21648;DHT22;10985;54.182;7.890;2024-03-29T06:49:30;8.50;99.90
21648;DHT22;10985;54.182;7.890;2024-03-29T06:51:58;8.50;99.90
21648;DHT22;10985;54.182;7.890;2024-03-29T06:54:25;8.50;99.90
21648;DHT22;10985;54.182;7.890;2024-03-29T06:56:52;8.50;99.90
21648;DHT22;10985;54.182;7.890;2024-03-29T06:59:19;8.60;99.90
21648;DHT22;10985;54.182;7.890;2024-03-29T07:01:44;8.60;99.90
21648;DHT22;10985;54.182;7.890;2024-03-29T07:04:10;8.60;99.90
21648;DHT22;10985;54.182;7.890;2024-03-29T07:06:35;8.60;99.90
21648;DHT22;10985;54.182;7.890;2024-03-29T07:09:03;8.70;99.90
21648;DHT22;10985;54.182;7.890;2024-03-29T07:11:29;8.70;99.90
21648;DHT22;10985;54.182;7.890;2024-03-29T07:13:55;8.70;99.90
21648;DHT22;10985;54.182;7.890;2024-03-29T07:16:21;8.70;99.90
21648;DHT22;10985;54.182;7.890;2024-03-29T07:18:46;8.70;99.90
21648;DHT22;10985;54.182;7.890;2024-03-29T07:21:12;8.70;99.90
21648;DHT22;10985;54.182;7.890;2024-03-29T07:23:37;8.70;99.90
21648;DHT22;10985;54.182;7.890;2024-03-29T07:26:04;8.70;99.90
21648;DHT22;10985;54.182;7.890;2024-03-29T07:28:30;8.80;99.90
21648;DHT22;10985;54.182;7.890;2024-03-29T07:30:57;8.80;99.90
21648;DHT22;10985;54.182;7.890;2024-03-29T07:33:23;8.80;99.90
21648;DHT22;10985;54.182;7.890;2024-03-29T07:35:52;8.80;99.90
21648;DHT22;10985;54.182;7.890;2024-03-29T07:38:18;8.80;99.90
21648;DHT22;10985;54.182;7.890;2024-03-29T07:40:48;8.80;99.90
21648;DHT22;10985;54.182;7.890;2024-03-29T07:43:14;8.80;99.90
21648;DHT22;10985;54.182;7.890;2024-03-29T07:45:41;8.80;99.90
21648;DHT22;10985;54.182;7.890;2024-03-29T07:48:09;8.90;99.90
21648;DHT22;10985;54.182;7.890;2024-03-29T07:50:35;8.90;99.90
21648;DHT22;10985;54.182;7.890;2024-03-29T07:53:02;9.00;99.90
21648;DHT22;10985;54.182;7.890;2024-03-29T07:55:27;9.00;99.90
21648;DHT22;10985;54.182;7.890;2024-03-29T07:57:53;9.00;99.90
21648;DHT22;10985;54.182;7.890;2024-03-29T08:00:19;9.10;99.90
21648;DHT22;10985;54.182;7.890;2024-03-29T08:02:44;9.10;99.90
21648;DHT22;10985;54.182;7.890;2024-03-29T08:05:10;9.10;99.90
21648;DHT22;10985;54.182;7.890;2024-03-29T08:07:35;9.20;99.90
21648;DHT22;10985;54.182;7.890;2024-03-29T08:10:01;9.20;99.90
21648;DHT22;10985;54.182;7.890;2024-03-29T08:12:26;9.20;99.90
21648;DHT22;10985;54.182;7.890;2024-03-29T08:14:52;9.20;99.90
21648;DHT22;10985;54.182;7.890;2024-03-29T08:17:17;9.20;99.90
21648;DHT22;10985;54.182;7.890;2024-03-29T08:19:43;9.20;99.90
21648;DHT22;10985;54.182;7.890;2024-03-29T08:22:08;9.20;99.90
21648;DHT22;10985;54.182;7.890;2024-03-29T08:24:36;9.20;99.90
21648;DHT22;10985;54.182;7.890;2024-03-29T08:27:02;9.20;99.90
21648;DHT22;10985;54.182;7.890;2024-03-29T08:29:28;9.30;99.90
21648;DHT22;10985;54.182;7.890;2024-03-29T08:31:53;9.30;99.90
21648;DHT22;10985;54.182;7.890;2024-03-29T08:34:19;9.30;99.90
21648;DHT22;10985;54.182;7.890;2024-03-29T08:36:44;9.40;99.90
21648;DHT22;10985;54.182;7.890;2024-03-29T08:39:10;9.40;99.90
21648;DHT22;10985;54.182;7.890;2024-03-29T08:41:36;9.50;99.90
21648;DHT22;10985;54.182;7.890;2024-03-29T08:44:02;9.50;99.90
21648;DHT22;10985;54.182;7.890;2024-03-29T08:46:27;9.50;99.90
21648;DHT22;10985;54.182;7.890;2024-03-29T08:48:53;9.40;99.90
21648;DHT22;10985;54.182;7.890;2024-03-29T08:51:20;9.50;99.90
21648;DHT22;10985;54.182;7.890;2024-03-29T08:53:46;9.50;99.90
21648;DHT22;10985;54.182;7.890;2024-03-29T08:56:12;9.50;99.90
21648;DHT22;10985;54.182;7.890;2024-03-29T08:58:38;9.50;99.90
21648;DHT22;10985;54.182;7.890;2024-03-29T09:01:04;9.50;99.90
21648;DHT22;10985;54.182;7.890;2024-03-29T09:03:30;9.50;99.90
21648;DHT22;10985;54.182;7.890;2024-03-29T09:05:56;9.50;99.90
21648;DHT22;10985;54.182;7.890;2024-03-29T09:08:22;9.60;99.90
21648;DHT22;10985;54.182;7.890;2024-03-29T09:10:47;9.70;99.90
21648;DHT22;10985;54.182;7.890;2024-03-29T09:13:13;9.80;99.90
21648;DHT22;10985;54.182;7.890;2024-03-29T09:15:38;9.90;99.90
21648;DHT22;10985;54.182;7.890;2024-03-29T09:18:04;10.00;99.90
21648;DHT22;10985;54.182;7.890;2024-03-29T09:20:43;10.10;99.90
21648;DHT22;10985;54.182;7.890;2024-03-29T09:23:09;10.20;99.90
21648;DHT22;10985;54.182;7.890;2024-03-29T09:25:34;10.20;99.90
21648;DHT22;10985;54.182;7.890;2024-03-29T09:27:59;10.20;99.90
21648;DHT22;10985;54.182;7.890;2024-03-29T09:30:25;10.30;99.90
21648;DHT22;10985;54.182;7.890;2024-03-29T09:32:50;10.30;99.90
21648;DHT22;10985;54.182;7.890;2024-03-29T09:35:17;10.40;99.90
21648;DHT22;10985;54.182;7.890;2024-03-29T09:37:44;10.50;99.90
21648;DHT22;10985;54.182;7.890;2024-03-29T09:40:10;10.40;99.90
21648;DHT22;10985;54.182;7.890;2024-03-29T09:42:38;10.40;99.90
21648;DHT22;10985;54.182;7.890;2024-03-29T09:45:05;10.40;99.90
21648;DHT22;10985;54.182;7.890;2024-03-29T09:47:32;10.40;99.90
21648;DHT22;10985;54.182;7.890;2024-03-29T09:50:00;10.40;99.90
21648;DHT22;10985;54.182;7.890;2024-03-29T09:52:28;10.40;99.90
21648;DHT22;10985;54.182;7.890;2024-03-29T09:54:54;10.50;99.90
21648;DHT22;10985;54.182;7.890;2024-03-29T09:57:20;10.40;99.90
21648;DHT22;10985;54.182;7.890;2024-03-29T09:59:46;10.50;99.90
21648;DHT22;10985;54.182;7.890;2024-03-29T10:02:15;10.60;99.90
21648;DHT22;10985;54.182;7.890;2024-03-29T10:04:42;10.80;99.90
21648;DHT22;10985;54.182;7.890;2024-03-29T10:07:09;10.90;99.90
21648;DHT22;10985;54.182;7.890;2024-03-29T10:09:37;11.10;99.90
21648;DHT22;10985;54.182;7.890;2024-03-29T10:12:03;11.20;99.90
21648;DHT22;10985;54.182;7.890;2024-03-29T10:14:31;11.40;99.90
21648;DHT22;10985;54.182;7.890;2024-03-29T10:16:58;11.60;99.90
21648;DHT22;10985;54.182;7.890;2024-03-29T10:19:23;11.70;99.90
21648;DHT22;10985;54.182;7.890;2024-03-29T10:21:49;11.80;99.90
21648;DHT22;10985;54.182;7.890;2024-03-29T10:24:18;11.90;99.90
21648;DHT22;10985;54.182;7.890;2024-03-29T10:26:45;12.00;99.90
21648;DHT22;10985;54.182;7.890;2024-03-29T10:29:11;12.00;99.90
21648;DHT22;10985;54.182;7.890;2024-03-29T10:31:37;12.10;99.90
21648;DHT22;10985;54.182;7.890;2024-03-29T10:34:03;12.10;99.90
21648;DHT22;10985;54.182;7.890;2024-03-29T10:36:31;12.10;99.90
21648;DHT22;10985;54.182;7.890;2024-03-29T10:39:02;12.10;99.90
21648;DHT22;10985;54.182;7.890;2024-03-29T10:41:34;12.20;99.90
21648;DHT22;10985;54.182;7.890;2024-03-29T10:43:59;12.40;99.90
21648;DHT22;10985;54.182;7.890;2024-03-29T10:46:29;12.70;99.90
21648;DHT22;10985;54.182;7.890;2024-03-29T10:48:55;13.00;99.90
21648;DHT22;10985;54.182;7.890;2024-03-29T10:51:22;13.30;99.90
21648;DHT22;10985;54.182;7.890;2024-03-29T10:53:48;13.60;99.90
21648;DHT22;10985;54.182;7.890;2024-03-29T10:56:14;14.00;99.90
21648;DHT22;10985;54.182;7.890;2024-03-29T10:58:46;14.20;99.90
21648;DHT22;10985;54.182;7.890;2024-03-29T11:01:15;14.40;99.90
21648;DHT22;10985;54.182;7.890;2024-03-29T11:03:44;14.50;99.90
21648;DHT22;10985;54.182;7.890;2024-03-29T11:06:15;14.50;99.90
21648;DHT22;10985;54.182;7.890;2024-03-29T11:08:42;14.70;99.90
21648;DHT22;10985;54.182;7.890;2024-03-29T11:11:12;14.80;99.90
21648;DHT22;10985;54.182;7.890;2024-03-29T11:13:42;14.90;99.90
21648;DHT22;10985;54.182;7.890;2024-03-29T11:16:09;15.10;99.90
21648;DHT22;10985;54.182;7.890;2024-03-29T11:18:37;15.20;99.90
21648;DHT22;10985;54.182;7.890;2024-03-29T11:21:03;15.20;99.90
21648;DHT22;10985;54.182;7.890;2024-03-29T11:23:32;15.10;99.90
21648;DHT22;10985;54.182;7.890;2024-03-29T11:25:57;15.30;99.90
21648;DHT22;10985;54.182;7.890;2024-03-29T11:28:35;15.40;99.90
21648;DHT22;10985;54.182;7.890;2024-03-29T11:31:05;15.50;99.90
21648;DHT22;10985;54.182;7.890;2024-03-29T11:33:35;15.80;99.90
21648;DHT22;10985;54.182;7.890;2024-03-29T11:36:13;16.00;99.90
21648;DHT22;10985;54.182;7.890;2024-03-29T11:38:39;16.30;99.90
21648;DHT22;10985;54.182;7.890;2024-03-29T11:41:06;16.50;99.90
21648;DHT22;10985;54.182;7.890;2024-03-29T11:43:33;16.80;99.90
21648;DHT22;10985;54.182;7.890;2024-03-29T11:45:59;17.20;99.90
21648;DHT22;10985;54.182;7.890;2024-03-29T11:48:27;17.40;99.90
21648;DHT22;10985;54.182;7.890;2024-03-29T11:50:53;17.50;99.90
21648;DHT22;10985;54.182;7.890;2024-03-29T11:53:22;17.50;99.90
21648;DHT22;10985;54.182;7.890;2024-03-29T11:55:48;17.50;99.90
21648;DHT22;10985;54.182;7.890;2024-03-29T11:58:28;17.60;99.90
21648;DHT22;10985;54.182;7.890;2024-03-29T12:00:55;17.70;99.90
21648;DHT22;10985;54.182;7.890;2024-03-29T12:03:22;17.70;99.90
21648;DHT22;10985;54.182;7.890;2024-03-29T12:05:49;17.50;99.90
21648;DHT22;10985;54.182;7.890;2024-03-29T12:08:16;17.30;99.90
21648;DHT22;10985;54.182;7.890;2024-03-29T12:10:41;17.30;99.90
21648;DHT22;10985;54.182;7.890;2024-03-29T12:13:07;17.20;99.90
21648;DHT22;10985;54.182;7.890;2024-03-29T12:15:34;17.00;99.90
21648;DHT22;10985;54.182;7.890;2024-03-29T12:18:04;17.00;99.90
21648;DHT22;10985;54.182;7.890;2024-03-29T12:20:34;17.00;99.90
21648;DHT22;10985;54.182;7.890;2024-03-29T12:23:04;17.00;99.90
21648;DHT22;10985;54.182;7.890;2024-03-29T12:25:31;17.00;99.90
21648;DHT22;10985;54.182;7.890;2024-03-29T12:27:58;17.10;99.90
21648;DHT22;10985;54.182;7.890;2024-03-29T12:30:23;17.30;99.90
21648;DHT22;10985;54.182;7.890;2024-03-29T12:33:06;17.30;99.90
21648;DHT22;10985;54.182;7.890;2024-03-29T12:35:33;17.20;99.90
21648;DHT22;10985;54.182;7.890;2024-03-29T12:38:03;16.90;99.90
21648;DHT22;10985;54.182;7.890;2024-03-29T12:40:31;17.00;99.90
21648;DHT22;10985;54.182;7.890;2024-03-29T12:43:03;17.00;99.90
21648;DHT22;10985;54.182;7.890;2024-03-29T12:45:28;16.80;99.90
21648;DHT22;10985;54.182;7.890;2024-03-29T12:47:54;16.70;99.90
21648;DHT22;10985;54.182;7.890;2024-03-29T12:50:26;16.60;99.90
21648;DHT22;10985;54.182;7.890;2024-03-29T12:53:01;16.60;99.90
21648;DHT22;10985;54.182;7.890;2024-03-29T12:55:28;16.60;99.90
21648;DHT22;10985;54.182;7.890;2024-03-29T12:58:00;16.60;99.90
21648;DHT22;10985;54.182;7.890;2024-03-29T13:00:27;16.70;99.90
21648;DHT22;10985;54.182;7.890;2024-03-29T13:02:53;16.60;99.90
21648;DHT22;10985;54.182;7.890;2024-03-29T13:05:18;16.40;99.90
21648;DHT22;10985;54.182;7.890;2024-03-29T13:07:44;16.40;99.90
21648;DHT22;10985;54.182;7.890;2024-03-29T13:10:10;16.10;99.90
21648;DHT22;10985;54.182;7.890;2024-03-29T13:12:40;16.00;99.90
21648;DHT22;10985;54.182;7.890;2024-03-29T13:17:40;15.40;99.90
21648;DHT22;10985;54.182;7.890;2024-03-29T13:20:06;15.30;99.90
21648;DHT22;10985;54.182;7.890;2024-03-29T13:22:32;15.10;99.90
21648;DHT22;10985;54.182;7.890;2024-03-29T13:24:57;15.00;99.90
21648;DHT22;10985;54.182;7.890;2024-03-29T13:27:23;14.70;99.90
21648;DHT22;10985;54.182;7.890;2024-03-29T13:29:48;14.50;99.90
21648;DHT22;10985;54.182;7.890;2024-03-29T13:32:14;14.40;99.90
21648;DHT22;10985;54.182;7.890;2024-03-29T13:34:40;14.20;99.90
21648;DHT22;10985;54.182;7.890;2024-03-29T13:37:06;14.10;99.90
21648;DHT22;10985;54.182;7.890;2024-03-29T13:39:31;14.00;99.90
21648;DHT22;10985;54.182;7.890;2024-03-29T13:41:57;13.90;99.90
21648;DHT22;10985;54.182;7.890;2024-03-29T13:44:23;13.90;99.90
21648;DHT22;10985;54.182;7.890;2024-03-29T13:46:48;13.80;99.90
21648;DHT22;10985;54.182;7.890;2024-03-29T13:49:14;13.70;99.90
21648;DHT22;10985;54.182;7.890;2024-03-29T13:51:39;13.70;99.90
21648;DHT22;10985;54.182;7.890;2024-03-29T13:54:05;13.80;99.90
21648;DHT22;10985;54.182;7.890;2024-03-29T13:56:30;13.70;99.90
21648;DHT22;10985;54.182;7.890;2024-03-29T13:58:56;13.70;99.90
21648;DHT22;10985;54.182;7.890;2024-03-29T14:01:21;13.70;99.90
21648;DHT22;10985;54.182;7.890;2024-03-29T14:03:47;13.60;99.90
21648;DHT22;10985;54.182;7.890;2024-03-29T14:06:13;13.60;99.90
21648;DHT22;10985;54.182;7.890;2024-03-29T14:08:38;13.60;99.90
21648;DHT22;10985;54.182;7.890;2024-03-29T14:11:04;13.60;99.90
21648;DHT22;10985;54.182;7.890;2024-03-29T14:13:29;13.60;99.90
21648;DHT22;10985;54.182;7.890;2024-03-29T14:15:55;13.60;99.90
21648;DHT22;10985;54.182;7.890;2024-03-29T14:18:24;13.60;99.90
21648;DHT22;10985;54.182;7.890;2024-03-29T14:20:50;13.50;99.90
21648;DHT22;10985;54.182;7.890;2024-03-29T14:23:16;13.50;99.90
21648;DHT22;10985;54.182;7.890;2024-03-29T14:25:44;13.60;99.90
21648;DHT22;10985;54.182;7.890;2024-03-29T14:28:10;13.60;99.90
21648;DHT22;10985;54.182;7.890;2024-03-29T14:30:35;13.60;99.90
21648;DHT22;10985;54.182;7.890;2024-03-29T14:33:01;13.60;99.90
21648;DHT22;10985;54.182;7.890;2024-03-29T14:35:32;13.50;99.90
21648;DHT22;10985;54.182;7.890;2024-03-29T14:37:58;13.60;99.90
21648;DHT22;10985;54.182;7.890;2024-03-29T14:40:24;13.50;99.90
21648;DHT22;10985;54.182;7.890;2024-03-29T14:42:52;13.50;99.90
21648;DHT22;10985;54.182;7.890;2024-03-29T14:45:17;13.60;99.90
21648;DHT22;10985;54.182;7.890;2024-03-29T14:47:43;13.60;99.90
21648;DHT22;10985;54.182;7.890;2024-03-29T14:50:08;13.60;99.90
21648;DHT22;10985;54.182;7.890;2024-03-29T14:52:35;13.60;99.90
21648;DHT22;10985;54.182;7.890;2024-03-29T14:55:00;13.60;99.90
21648;DHT22;10985;54.182;7.890;2024-03-29T14:57:26;13.60;99.90
21648;DHT22;10985;54.182;7.890;2024-03-29T14:59:51;13.50;99.90
21648;DHT22;10985;54.182;7.890;2024-03-29T15:02:17;13.40;99.90
21648;DHT22;10985;54.182;7.890;2024-03-29T15:04:43;13.50;99.90
21648;DHT22;10985;54.182;7.890;2024-03-29T15:07:08;13.50;99.90
21648;DHT22;10985;54.182;7.890;2024-03-29T15:09:34;13.40;99.90
21648;DHT22;10985;54.182;7.890;2024-03-29T15:12:02;13.30;99.90
21648;DHT22;10985;54.182;7.890;2024-03-29T15:14:32;13.30;99.90
21648;DHT22;10985;54.182;7.890;2024-03-29T15:16:58;13.10;99.90
21648;DHT22;10985;54.182;7.890;2024-03-29T15:19:23;13.00;99.90
21648;DHT22;10985;54.182;7.890;2024-03-29T15:21:49;13.00;99.90
21648;DHT22;10985;54.182;7.890;2024-03-29T15:24:18;13.00;99.90
21648;DHT22;10985;54.182;7.890;2024-03-29T15:26:43;13.00;99.90
21648;DHT22;10985;54.182;7.890;2024-03-29T15:29:09;12.90;99.90
21648;DHT22;10985;54.182;7.890;2024-03-29T15:31:40;12.90;99.90
21648;DHT22;10985;54.182;7.890;2024-03-29T15:34:07;12.80;99.90
21648;DHT22;10985;54.182;7.890;2024-03-29T15:36:34;12.80;99.90
21648;DHT22;10985;54.182;7.890;2024-03-29T15:39:00;12.80;99.90